Aviation weather information 2020-07-12 05:42 UTC

TAF(FTEO31)
FTEO31 EETN 120500
TAF EETN 120505Z 1206/1306 22008KT 9999 SCT020 BECMG 1207/1209
     SCT030CB TEMPO 1209/1218 SHRA SCT012 BKN020CB TEMPO 1210/1216
     VRB20KT 2000 TSRA PROB40 TEMPO 1221/1304 3000 BR BKN004=

TAF(FTEO33)
FTEO33 EEEI 120530
TAF EEEI 120530Z 1206/1306 20008KT 9999 FEW017 TEMPO 1208/1216
     3000 SHRA SCT015 BKN025CB PROB40 TEMPO 1209/1215 VRB020KT TSRA
     TEMPO 1209/1220 26010KT PROB30 TEMPO 1222/1303 3000 BR SCT003= 

SIGMET(WSEO31)
WSEO31 EETN 120408
EETT SIGMET U02 VALID 120410/120600 EEMH-
EETT TALLINN FIR SEV TURB FCST WI N5945 E02455 - N5800 E02250 - N5935
E02305 - N5945 E02455 FL240/320 MOV NE 15KT WKN=

Weather observation (METAR/SPECI)
METAR EETN 120520Z 22006KT 180V250 CAVOK 14/11 Q1015 NOSIG=
METAR EEEI 120450Z 20006KT CAVOK 14/12 Q1016 NOSIG=
METAR EETU 120520Z 24006KT 210V280 CAVOK 15/11 Q1017=
METAR EEPU 120450Z NIL=
SPECI EEKE 120501Z AUTO 21006KT 180V240 9999NDV SCT003 15/14 Q1016=
METAR EEKA 120450Z NIL=